.
WxDataArchive / Data Records for 2009-03-30
2009-03-29 March 2009 2009-03-31

Data Records for Monday, 30 March 2009

Time	Temp	Chill	HIndex	Humid	Dewpt	 Wind 	HiWind	WindDir	Rain 	Barom 
-----	----	-----	------	-----	-----	------	------	-------	-----	----- 
00:00	34.6	34.6	34.6	80	29.1	1	5	248	0.00	29.855 
00:05	34.4	34.4	34.4	80	28.9	1	5	248	0.00	29.857 
00:10	34.3	34.3	34.3	80	28.8	1	5	248	0.00	29.861 
00:15	34.3	34.3	34.3	80	28.8	1	2	248	0.00	29.866 
00:20	34.3	34.3	34.3	81	29.1	2	7	248	0.00	29.866 
00:25	34.3	34.3	34.3	81	29.1	2	5	248	0.00	29.870 
00:30	34.3	34.3	34.3	81	29.1	1	5	248	0.00	29.872 
00:35	34.1	34.1	34.1	81	28.9	1	3	248	0.00	29.874 
00:40	34.1	34.1	34.1	81	28.9	1	5	248	0.00	29.876 
00:45	34.1	34.1	34.1	82	29.2	1	6	248	0.00	29.878 
00:50	34.0	34.0	34.0	82	29.1	1	3	248	0.00	29.881 
00:55	34.0	34.0	34.0	83	29.4	1	3	248	0.00	29.884 
01:00	34.0	34.0	34.0	83	29.4	1	4	248	0.00	29.882 
01:05	33.8	33.8	33.8	83	29.2	1	5	248	0.00	29.887 
01:10	33.8	33.8	33.8	84	29.5	1	3	248	0.00	29.881 
01:15	33.7	33.7	33.7	84	29.4	1	3	270	0.00	29.885 
01:20	33.7	33.7	33.7	84	29.4	1	3	248	0.00	29.884 
01:25	33.5	33.5	33.5	84	29.2	1	3	248	0.00	29.889 
01:30	33.5	33.5	33.5	84	29.2	1	3	248	0.00	29.889 
01:35	33.4	33.4	33.4	84	29.1	1	4	248	0.00	29.892 
01:40	33.4	33.4	33.4	84	29.1	1	3	248	0.00	29.893 
01:45	33.2	33.2	33.2	85	29.2	1	4	248	0.00	29.899 
01:50	33.2	33.2	33.2	85	29.2	1	4	248	0.00	29.903 
01:55	33.1	33.1	33.1	85	29.1	1	5	248	0.00	29.904 
02:00	33.1	33.1	33.1	85	29.1	2	4	248	0.00	29.906 
02:05	33.1	33.1	33.1	85	29.1	1	4	248	0.00	29.909 
02:10	32.9	32.9	32.9	85	28.9	1	3	248	0.00	29.909 
02:15	32.8	32.8	32.8	85	28.8	1	5	248	0.00	29.910 
02:20	32.7	32.7	32.7	85	28.7	1	2	248	0.00	29.911 
02:25	32.5	32.5	32.5	85	28.5	0	2	248	0.00	29.916 
02:30	32.5	32.5	32.5	85	28.5	0	2	248	0.00	29.920 
02:35	32.4	32.4	32.4	85	28.4	1	3	248	0.00	29.923 
02:40	32.4	32.4	32.4	85	28.4	0	2	248	0.00	29.925 
02:45	32.2	32.2	32.2	85	28.2	0	1	248	0.00	29.928 
02:50	32.1	32.1	32.1	86	28.4	0	1	248	0.00	29.931 
02:55	32.1	32.1	32.1	86	28.4	1	4	248	0.00	29.931 
03:00	31.9	31.9	31.9	86	28.2	0	2	248	0.00	29.933 
03:05	31.9	31.9	31.9	86	28.2	0	2	248	0.00	29.932 
03:10	31.8	31.8	31.8	86	28.1	0	3	248	0.00	29.930 
03:15	31.8	31.8	31.8	86	28.1	0	2	248	0.00	29.929 
03:20	31.6	31.6	31.6	86	27.9	0	1	248	0.00	29.929 
03:25	31.5	31.5	31.5	86	27.8	0	1	248	0.00	29.933 
03:30	31.3	31.3	31.3	86	27.6	0	1	248	0.00	29.937 
03:35	31.3	31.3	31.3	86	27.6	1	3	248	0.00	29.940 
03:40	31.3	31.3	31.3	86	27.6	0	3	248	0.00	29.942 
03:45	31.3	31.3	31.3	87	27.9	1	3	248	0.00	29.944 
03:50	31.3	31.3	31.3	87	27.9	1	3	248	0.00	29.945 
03:55	31.3	31.3	31.3	87	27.9	0	2	248	0.00	29.947 
04:00	31.3	31.3	31.3	87	27.9	1	4	248	0.00	29.955 
04:05	31.2	31.2	31.2	87	27.8	0	4	248	0.00	29.959 
04:10	31.2	31.2	31.2	87	27.8	0	2	225	0.00	29.961 
04:15	31.2	31.2	31.2	87	27.8	0	2	225	0.00	29.966 
04:20	31.0	31.0	31.0	87	27.6	1	2	225	0.00	29.968 
04:25	31.2	31.2	31.2	88	28.1	1	3	248	0.00	29.972 
04:30	31.2	31.2	31.2	88	28.1	0	2	248	0.00	29.975 
04:35	31.0	31.0	31.0	88	27.9	0	1	248	0.00	29.975 
04:40	31.0	31.0	31.0	88	27.9	0	1	248	0.00	29.974 
04:45	30.9	30.9	30.9	88	27.8	0	2	248	0.00	29.976 
04:50	30.7	30.7	30.7	88	27.6	0	1	248	0.00	29.976 
04:55	30.6	30.6	30.6	88	27.5	0	1	248	0.00	29.980 
05:00	30.6	30.6	30.6	88	27.5	0	3	248	0.00	29.988 
05:05	30.6	30.6	30.6	88	27.5	0	3	248	0.00	29.989 
05:10	30.6	30.6	30.6	88	27.5	0	3	248	0.00	29.992 
05:15	30.4	30.4	30.4	88	27.3	0	3	248	0.00	29.997 
05:20	30.4	30.4	30.4	88	27.3	0	3	248	0.00	29.997 
05:25	30.4	30.4	30.4	88	27.3	0	3	248	0.00	30.002 
05:30	30.4	30.4	30.4	88	27.3	0	2	248	0.00	30.006 
05:35	30.4	30.4	30.4	88	27.3	0	1	248	0.00	30.007 
05:40	30.3	30.3	30.3	88	27.2	0	2	248	0.00	30.008 
05:45	30.1	30.1	30.1	88	27.0	0	1	248	0.00	30.009 
05:50	30.1	30.1	30.1	88	27.0	0	2	248	0.00	30.012 
05:55	30.1	30.1	30.1	88	27.0	0	1	248	0.00	30.015 
06:00	30.0	30.0	30.0	88	26.9	0	1	248	0.00	30.019 
06:05	30.0	30.0	30.0	89	27.2	0	2	248	0.00	30.021 
06:10	30.0	30.0	30.0	89	27.2	0	1	248	0.00	30.021 
06:15	29.8	29.8	29.8	89	27.0	0	1	248	0.00	30.022 
06:20	29.8	29.8	29.8	89	27.0	0	1	248	0.00	30.022 
06:25	29.7	29.7	29.7	89	26.9	0	2	248	0.00	30.022 
06:30	29.7	29.7	29.7	89	26.9	0	1	248	0.00	30.023 
06:35	29.7	29.7	29.7	89	26.9	0	1	248	0.00	30.025 
06:40	29.5	29.5	29.5	89	26.7	0	1	248	0.00	30.030 
06:45	29.5	29.5	29.5	89	26.7	0	2	248	0.00	30.035 
06:50	29.5	29.5	29.5	89	26.7	0	1	248	0.00	30.037 
06:55	29.7	29.7	29.7	89	26.9	0	0	---	0.00	30.038 
07:00	29.7	29.7	29.7	89	26.9	0	1	248	0.00	30.040 
07:05	29.8	29.8	29.8	89	27.0	0	1	248	0.00	30.040 
07:10	30.1	30.1	30.1	89	27.3	0	2	248	0.00	30.044 
07:15	30.4	30.4	30.4	89	27.6	0	1	248	0.00	30.047 
07:20	30.7	30.7	30.7	89	27.8	0	3	248	0.00	30.046 
07:25	31.2	31.2	31.2	88	28.1	0	2	248	0.00	30.049 
07:30	31.6	31.6	31.6	88	28.5	0	2	248	0.00	30.053 
07:35	32.1	32.1	32.1	87	28.7	0	1	248	0.00	30.057 
07:40	32.5	32.5	32.5	86	28.8	0	3	248	0.00	30.056 
07:45	32.8	32.8	32.8	84	28.5	1	3	248	0.00	30.058 
07:50	33.1	33.1	33.1	83	28.5	1	4	248	0.00	30.059 
07:55	33.4	33.4	33.4	82	28.5	0	1	248	0.00	30.060 
08:00	33.7	33.7	33.7	81	28.5	1	3	248	0.00	30.061 
08:05	33.7	33.7	33.7	80	28.2	1	3	315	0.00	30.065 
08:10	33.8	33.8	33.8	80	28.3	1	5	270	0.00	30.064 
08:15	34.3	34.3	34.3	79	28.5	1	2	270	0.00	30.061 
08:20	34.6	34.6	34.6	78	28.5	0	2	0	0.00	30.061 
08:25	34.9	34.9	34.9	77	28.4	1	6	338	0.00	30.062 
08:30	35.0	35.0	35.0	76	28.2	1	5	270	0.00	30.063 
08:35	35.3	35.3	35.3	74	27.9	1	4	270	0.00	30.064 
08:40	35.3	35.3	35.3	73	27.5	1	5	315	0.00	30.065 
08:45	35.5	35.5	35.5	73	27.7	1	4	270	0.00	30.064 
08:50	35.9	35.9	35.9	72	27.8	1	3	270	0.00	30.065 
08:55	36.2	36.2	36.2	71	27.7	1	2	315	0.00	30.066 
09:00	36.6	36.6	36.6	70	27.8	2	5	338	0.00	30.067 
09:05	36.9	36.9	36.9	69	27.7	2	5	270	0.00	30.071 
09:10	37.0	37.0	37.0	68	27.4	1	6	338	0.00	30.074 
09:15	37.6	37.6	37.6	69	28.4	1	3	338	0.00	30.076 
09:20	37.9	37.9	37.9	67	27.9	1	4	338	0.00	30.076 
09:25	38.0	38.0	38.0	65	27.3	1	4	270	0.00	30.077 
09:30	38.5	38.5	38.5	66	28.1	1	4	248	0.01	30.080 
09:35	38.6	38.6	38.6	62	26.7	2	5	338	0.00	30.080 
09:40	38.6	38.6	38.6	62	26.7	2	4	338	0.00	30.081 
09:45	38.8	38.8	38.8	61	26.5	1	5	0	0.00	30.085 
09:50	39.1	39.1	39.1	61	26.8	1	9	338	0.00	30.085 
09:55	39.5	39.5	39.5	61	27.2	2	4	270	0.00	30.085 
10:00	40.1	40.1	40.1	62	28.1	1	3	270	0.00	30.087 
10:05	40.5	40.5	40.5	58	26.9	1	4	315	0.00	30.087 
10:10	40.6	40.6	40.6	61	28.2	1	2	292	0.00	30.090 
10:15	40.5	40.5	40.5	58	26.9	1	6	292	0.00	30.090 
10:20	40.8	40.8	40.8	58	27.2	1	4	270	0.00	30.090 
10:25	40.8	40.8	40.8	55	25.9	1	4	338	0.00	30.091 
10:30	40.8	40.8	40.8	59	27.6	1	4	338	0.00	30.091 
10:35	41.2	41.2	41.2	58	27.6	1	5	270	0.00	30.092 
10:40	41.5	41.5	41.5	59	28.3	2	6	248	0.00	30.093 
10:45	41.9	41.9	41.9	56	27.4	1	4	248	0.00	30.097 
10:50	41.9	41.9	41.9	57	27.8	2	4	270	0.00	30.099 
10:55	42.3	42.3	42.3	56	27.7	1	3	270	0.00	30.099 
11:00	42.9	42.9	42.9	54	27.4	1	5	248	0.00	30.098 
11:05	43.1	43.1	43.1	53	27.1	1	5	248	0.00	30.095 
11:10	43.1	43.1	43.1	54	27.6	1	3	248	0.00	30.098 
11:15	43.1	43.1	43.1	57	28.9	1	3	338	0.00	30.100 
11:20	43.8	43.8	43.8	58	30.0	1	3	248	0.00	30.101 
11:25	44.1	44.1	44.1	56	29.4	1	4	292	0.00	30.103 
11:30	44.1	44.1	44.1	54	28.5	1	3	248	0.00	30.102 
11:35	44.3	44.3	44.3	54	28.7	2	5	270	0.00	30.102 
11:40	44.5	44.5	44.5	52	28.0	1	3	315	0.00	30.101 
11:45	44.5	44.5	44.5	52	28.0	2	5	248	0.00	30.102 
11:50	44.2	44.2	44.2	52	27.7	3	7	248	0.00	30.104 
11:55	44.2	44.2	44.2	52	27.7	1	4	248	0.00	30.105 
12:00	44.6	44.6	44.6	51	27.6	1	4	248	0.00	30.104 
12:05	45.2	45.2	45.2	53	29.1	1	3	292	0.00	30.105 
12:10	45.2	45.2	45.2	51	28.2	1	5	248	0.00	30.105 
12:15	45.5	45.5	45.5	51	28.4	1	3	248	0.00	30.103 
12:20	46.0	46.0	46.0	49	27.9	1	3	315	0.00	30.103 
12:25	46.0	46.0	46.0	48	27.4	1	3	270	0.00	30.102 
12:30	46.2	46.2	46.2	53	30.0	0	2	270	0.00	30.101 
12:35	46.7	46.7	46.7	50	29.1	1	4	338	0.00	30.102 
12:40	46.7	46.7	46.7	48	28.1	1	4	270	0.00	30.103 
12:45	46.1	46.1	46.1	48	27.5	2	4	315	0.00	30.104 
12:50	46.2	46.2	46.2	50	28.6	1	4	248	0.00	30.103 
12:55	46.7	46.7	46.7	50	29.1	0	2	248	0.00	30.102 
13:00	47.3	47.3	47.3	50	29.6	1	4	315	0.00	30.102 
13:05	47.1	47.1	47.1	48	28.4	1	3	0	0.00	30.101 
13:10	47.4	47.4	47.4	42	25.5	0	2	292	0.00	30.101 
13:15	47.4	47.4	47.4	43	26.0	1	3	292	0.00	30.101 
13:20	47.6	47.6	47.6	46	27.9	2	6	248	0.00	30.102 
13:25	47.6	47.6	47.6	44	26.8	1	4	45	0.00	30.101 
13:30	48.0	48.0	48.0	46	28.2	0	2	45	0.00	30.103 
13:35	48.6	48.6	48.6	45	28.2	1	3	292	0.00	30.101 
13:40	48.5	48.5	48.5	44	27.6	1	3	0	0.00	30.101 
13:45	48.8	48.8	48.8	45	28.4	1	4	225	0.00	30.098 
13:50	48.8	48.8	48.8	42	26.7	1	3	315	0.00	30.095 
13:55	48.8	48.8	48.8	42	26.7	1	3	338	0.00	30.095 
14:00	49.4	49.4	49.4	47	30.0	1	3	248	0.00	30.091 
14:05	50.1	50.1	50.1	45	29.6	1	3	248	0.00	30.090 
14:10	50.2	50.2	50.2	43	28.6	1	3	292	0.00	30.090 
14:15	49.8	49.8	49.8	39	25.9	1	3	315	0.00	30.088 
14:20	49.8	49.8	49.8	46	29.9	1	3	292	0.00	30.088 
14:25	50.4	50.4	50.4	46	30.4	1	3	270	0.00	30.087 
14:30	50.7	50.7	50.7	43	29.0	0	2	270	0.00	30.086 
14:35	50.7	50.7	50.7	45	30.1	1	4	270	0.00	30.085 
14:40	50.5	50.5	50.5	42	28.3	0	3	248	0.00	30.082 
14:45	49.9	49.9	49.9	40	26.6	2	4	90	0.00	30.080 
14:50	50.4	50.4	50.4	45	29.9	1	3	270	0.00	30.075 
14:55	51.0	51.0	51.0	43	29.3	1	3	270	0.00	30.074 
15:00	51.3	51.3	51.3	40	27.8	1	3	270	0.00	30.073 
15:05	51.6	51.6	51.6	43	29.8	1	3	270	0.00	30.071 
15:10	51.6	51.6	51.6	43	29.8	0	2	270	0.00	30.070 
15:15	51.6	51.6	51.6	39	27.5	1	3	270	0.00	30.069 
15:20	51.1	51.1	51.1	39	27.0	1	4	90	0.00	30.069 
15:25	51.0	51.0	51.0	43	29.3	0	2	90	0.00	30.069 
15:30	51.1	51.1	51.1	41	28.2	0	2	315	0.00	30.069 
15:35	51.3	51.3	51.3	40	27.8	0	3	135	0.00	30.069 
15:40	51.1	51.1	51.1	41	28.2	1	5	90	0.00	30.069 
15:45	50.8	50.8	50.8	40	27.4	1	3	90	0.00	30.070 
15:50	51.0	51.0	51.0	39	26.9	0	2	90	0.00	30.070 
15:55	51.3	51.3	51.3	40	27.8	1	2	90	0.00	30.070 
16:00	51.4	51.4	51.4	40	27.9	0	2	90	0.00	30.070 
16:05	51.7	51.7	51.7	35	24.9	1	3	90	0.00	30.070 
16:10	51.7	51.7	51.7	42	29.4	0	2	90	0.00	30.070 
16:15	51.6	51.6	51.6	37	26.2	1	3	90	0.00	30.066 
16:20	51.1	51.1	51.1	36	25.1	2	6	90	0.00	30.063 
16:25	50.8	50.8	50.8	38	26.1	1	3	90	0.00	30.067 
16:30	51.0	51.0	51.0	39	26.9	0	2	112	0.00	30.068 
16:35	51.0	51.0	51.0	38	26.3	1	4	112	0.00	30.068 
16:40	51.0	51.0	51.0	39	26.9	1	4	90	0.00	30.068 
16:45	51.0	51.0	51.0	38	26.3	1	4	90	0.00	30.066 
16:50	51.3	51.3	51.3	39	27.2	0	2	90	0.00	30.062 
16:55	51.3	51.3	51.3	39	27.2	0	2	90	0.00	30.066 
17:00	51.4	51.4	51.4	38	26.7	0	2	90	0.00	30.069 
17:05	51.4	51.4	51.4	41	28.5	1	3	90	0.00	30.072 
17:10	51.4	51.4	51.4	39	27.3	0	2	90	0.00	30.073 
17:15	51.4	51.4	51.4	40	27.9	0	2	90	0.00	30.073 
17:20	51.3	51.3	51.3	37	25.9	0	2	90	0.00	30.073 
17:25	51.0	51.0	51.0	41	28.1	1	4	112	0.00	30.072 
17:30	50.7	50.7	50.7	40	27.3	2	7	90	0.00	30.071 
17:35	50.4	50.4	50.4	40	27.0	1	3	90	0.00	30.071 
17:40	50.4	50.4	50.4	40	27.0	1	3	112	0.00	30.072 
17:45	50.4	50.4	50.4	41	27.6	1	4	112	0.00	30.071 
17:50	50.2	50.2	50.2	41	27.4	1	4	90	0.00	30.071 
17:55	50.1	50.1	50.1	40	26.7	1	3	90	0.00	30.070 
18:00	50.1	50.1	50.1	41	27.3	2	5	90	0.00	30.070 
18:05	49.9	49.9	49.9	40	26.6	1	4	112	0.00	30.070 
18:10	49.8	49.8	49.8	40	26.5	2	5	90	0.00	30.071 
18:15	49.8	49.8	49.8	41	27.1	1	3	90	0.00	30.071 
18:20	49.8	49.8	49.8	42	27.6	1	3	90	0.00	30.071 
18:25	49.6	49.6	49.6	42	27.5	2	4	90	0.00	30.072 
18:30	49.4	49.4	49.4	41	26.7	2	4	112	0.00	30.072 
18:35	49.2	49.2	49.2	42	27.1	2	5	90	0.00	30.074 
18:40	49.1	49.1	49.1	43	27.6	1	3	90	0.00	30.074 
18:45	48.8	48.8	48.8	43	27.3	1	3	90	0.00	30.073 
18:50	48.5	48.5	48.5	44	27.6	1	3	90	0.00	30.074 
18:55	48.3	48.3	48.3	44	27.4	1	4	90	0.00	30.073 
19:00	48.0	48.0	48.0	45	27.7	1	3	112	0.00	30.072 
19:05	47.7	47.7	47.7	46	27.9	1	2	112	0.00	30.069 
19:10	47.4	47.4	47.4	46	27.7	1	3	112	0.00	30.067 
19:15	47.1	47.1	47.1	47	27.9	1	2	112	0.00	30.069 
19:20	46.8	46.8	46.8	48	28.2	0	2	112	0.00	30.068 
19:25	46.5	46.5	46.5	48	27.9	1	2	112	0.00	30.067 
19:30	46.4	46.4	46.4	49	28.3	1	3	90	0.00	30.065 
19:35	46.1	46.1	46.1	49	28.0	0	2	90	0.00	30.065 
19:40	46.0	46.0	46.0	49	27.9	0	2	90	0.00	30.066 
19:45	45.8	45.8	45.8	50	28.2	0	2	90	0.00	30.064 
19:50	45.5	45.5	45.5	51	28.4	0	3	90	0.00	30.063 
19:55	45.2	45.2	45.2	52	28.6	0	1	90	0.00	30.065 
20:00	44.9	44.9	44.9	52	28.4	0	2	90	0.00	30.063 
20:05	44.6	44.6	44.6	54	29.0	0	1	90	0.00	30.059 
20:10	44.2	44.2	44.2	54	28.6	0	2	90	0.00	30.063 
20:15	43.9	43.9	43.9	54	28.3	0	0	---	0.00	30.067 
20:20	43.6	43.6	43.6	55	28.5	0	0	---	0.00	30.067 
20:25	43.1	43.1	43.1	56	28.5	0	0	---	0.00	30.068 
20:30	42.6	42.6	42.6	57	28.4	0	0	---	0.00	30.068 
20:35	42.1	42.1	42.1	58	28.4	0	0	---	0.00	30.070 
20:40	41.5	41.5	41.5	60	28.7	0	0	---	0.00	30.070 
20:45	41.1	41.1	41.1	60	28.3	0	0	---	0.00	30.073 
20:50	40.6	40.6	40.6	61	28.2	0	0	---	0.00	30.072 
20:55	40.5	40.5	40.5	62	28.5	0	1	90	0.00	30.070 
21:00	40.9	40.9	40.9	62	28.9	0	2	90	0.00	30.067 
21:05	41.3	41.3	41.3	65	30.4	0	2	90	0.00	30.064 
21:10	41.9	41.9	41.9	60	29.0	1	2	90	0.00	30.059 
21:15	42.3	42.3	42.3	59	29.0	1	3	90	0.00	30.057 
21:20	42.6	42.6	42.6	58	28.9	1	4	90	0.00	30.056 
21:25	42.6	42.6	42.6	58	28.9	1	3	90	0.00	30.056 
21:30	42.8	42.8	42.8	58	29.1	2	3	90	0.00	30.055 
21:35	42.8	42.8	42.8	57	28.6	2	5	112	0.00	30.053 
21:40	42.8	42.8	42.8	58	29.1	2	4	68	0.00	30.053 
21:45	42.8	42.8	42.8	57	28.6	2	4	90	0.00	30.053 
21:50	42.6	42.6	42.6	58	28.9	2	5	90	0.00	30.052 
21:55	42.6	42.6	42.6	58	28.9	2	4	90	0.00	30.053 
22:00	42.5	42.5	42.5	58	28.8	2	4	112	0.00	30.052 
22:05	42.3	42.3	42.3	58	28.6	2	4	112	0.00	30.048 
22:10	42.3	42.3	42.3	58	28.6	3	6	112	0.00	30.043 
22:15	42.3	42.3	42.3	58	28.6	2	4	112	0.00	30.040 
22:20	42.2	42.2	42.2	59	28.9	2	5	112	0.00	30.039 
22:25	42.1	42.1	42.1	59	28.8	3	6	112	0.00	30.039 
22:30	41.9	41.9	41.9	60	29.0	2	6	112	0.00	30.040 
22:35	41.6	41.6	41.6	61	29.2	2	5	90	0.00	30.040 
22:40	41.5	41.5	41.5	61	29.1	3	5	112	0.00	30.040 
22:45	41.3	41.3	41.3	62	29.3	2	5	112	0.00	30.038 
22:50	41.3	41.3	41.3	62	29.3	3	6	112	0.00	30.037 
22:55	41.3	41.3	41.3	62	29.3	3	5	112	0.00	30.037 
23:00	41.3	41.3	41.3	62	29.3	2	5	112	0.00	30.039 
23:05	41.3	41.3	41.3	62	29.3	2	4	112	0.00	30.037 
23:10	41.3	41.3	41.3	62	29.3	3	5	112	0.00	30.037 
23:15	41.3	41.3	41.3	62	29.3	2	5	90	0.00	30.036 
23:20	41.3	41.3	41.3	63	29.7	2	5	112	0.00	30.036 
23:25	41.2	41.2	41.2	63	29.6	2	4	112	0.00	30.036 
23:30	41.2	41.2	41.2	63	29.6	2	5	90	0.00	30.035 
23:35	41.1	41.1	41.1	64	29.9	3	5	112	0.00	30.035 
23:40	41.1	41.1	41.1	64	29.9	3	7	112	0.00	30.035 
23:45	41.1	41.1	41.1	64	29.9	3	6	112	0.00	30.034 
23:50	41.1	41.1	41.1	64	29.9	3	5	112	0.00	30.035 
23:55	41.2	41.2	41.2	64	30.0	2	4	112	0.00	30.035 

CoCoRaHS
IN-AL-39
A2 Web Hosting
Creative Commons License
GoDaddy
search engine by freefind advanced

loaded 2018-11-20 08:33:55 • last modified 2010-11-18 10:43:29
Privacy PolicyDisclaimer
• wx.awcolley.com is powered by PmWiki v.2002016 •
• all content (unless otherwise noted) © 2018 A W Colley